createdAt,value
2018-05-13T00:00:10.003Z,15.94
2018-05-13T00:01:10.003Z,16.04
2018-05-13T00:02:10.013Z,16.14
2018-05-13T00:03:10.027Z,16.07
2018-05-13T00:04:10.049Z,16.12
2018-05-13T00:05:10.130Z,16.26
2018-05-13T00:06:10.067Z,16.27
2018-05-13T00:07:10.078Z,16.12
2018-05-13T00:08:10.088Z,16.20
2018-05-13T00:09:10.099Z,16.01
2018-05-13T00:10:10.111Z,15.88
2018-05-13T00:11:10.125Z,15.78
2018-05-13T00:12:10.142Z,15.74
2018-05-13T00:13:10.149Z,15.70
2018-05-13T00:14:10.162Z,15.59
2018-05-13T00:15:10.173Z,15.54
2018-05-13T00:16:10.181Z,15.57
2018-05-13T00:17:10.193Z,15.56
2018-05-13T00:18:10.213Z,15.52
2018-05-13T00:19:10.218Z,15.76
2018-05-13T00:20:10.231Z,15.70
2018-05-13T00:21:10.249Z,15.75
2018-05-13T00:22:10.257Z,15.74
2018-05-13T00:23:10.267Z,15.74
2018-05-13T00:24:10.288Z,15.64
2018-05-13T00:25:10.290Z,15.66
2018-05-13T00:26:10.304Z,15.63
2018-05-13T00:27:10.318Z,15.78
2018-05-13T00:28:10.329Z,15.82
2018-05-13T00:29:10.339Z,15.88
2018-05-13T00:30:10.359Z,15.86
2018-05-13T00:31:10.360Z,15.86
2018-05-13T00:32:10.381Z,15.93
2018-05-13T00:33:10.388Z,15.97
2018-05-13T00:34:10.397Z,15.97
2018-05-13T00:35:10.412Z,15.97
2018-05-13T00:36:10.420Z,15.86
2018-05-13T00:37:10.430Z,15.74
2018-05-13T00:38:10.441Z,15.84
2018-05-13T00:39:10.452Z,15.89
2018-05-13T00:40:10.476Z,16.00
2018-05-13T00:41:10.476Z,15.97
2018-05-13T00:42:10.494Z,16.04
2018-05-13T00:43:10.502Z,16.12
2018-05-13T00:44:10.511Z,16.16
2018-05-13T00:45:10.523Z,16.16
2018-05-13T00:46:10.532Z,16.25
2018-05-13T00:47:10.548Z,16.37
2018-05-13T00:48:10.568Z,16.33
2018-05-13T00:49:10.570Z,16.37
2018-05-13T00:50:10.580Z,16.45
2018-05-13T00:51:10.594Z,16.48
2018-05-13T00:52:10.608Z,16.59
2018-05-13T00:53:10.617Z,16.58
2018-05-13T00:54:10.635Z,16.56
2018-05-13T00:55:10.640Z,16.52
2018-05-13T00:56:10.651Z,16.48
2018-05-13T00:57:10.661Z,16.48
2018-05-13T00:58:10.676Z,16.55
2018-05-13T00:59:10.692Z,16.56
2018-05-13T01:00:10.708Z,16.53
2018-05-13T01:01:10.719Z,16.34
2018-05-13T01:02:10.725Z,16.30
2018-05-13T01:03:10.736Z,16.31
2018-05-13T01:04:10.750Z,16.20
2018-05-13T01:05:10.761Z,16.14
2018-05-13T01:06:10.781Z,16.14
2018-05-13T01:07:10.781Z,16.26
2018-05-13T01:08:10.796Z,16.18
2018-05-13T01:09:10.808Z,16.20
2018-05-13T01:10:10.816Z,16.14
2018-05-13T01:11:10.829Z,16.01
2018-05-13T01:12:10.840Z,15.78
2018-05-13T01:13:11.265Z,15.67
2018-05-13T01:14:10.866Z,15.64
2018-05-13T01:15:10.877Z,15.60
2018-05-13T01:16:10.888Z,15.46
2018-05-13T01:17:10.899Z,15.59
2018-05-13T01:18:10.909Z,15.75
2018-05-13T01:19:10.928Z,15.75
2018-05-13T01:20:10.930Z,15.70
2018-05-13T01:21:10.944Z,15.66
2018-05-13T01:22:10.951Z,15.64
2018-05-13T01:23:10.964Z,15.64
2018-05-13T01:24:10.980Z,15.66
2018-05-13T01:25:11.005Z,15.54
2018-05-13T01:26:11.003Z,15.68
2018-05-13T01:27:11.016Z,15.75
2018-05-13T01:28:11.022Z,15.78
2018-05-13T01:29:11.041Z,15.78
2018-05-13T01:30:11.047Z,15.75
2018-05-13T01:31:11.061Z,15.79
2018-05-13T01:32:11.075Z,15.75
2018-05-13T01:33:11.080Z,15.84
2018-05-13T01:34:11.094Z,15.92
2018-05-13T01:35:11.104Z,15.92
2018-05-13T01:36:11.118Z,15.78
2018-05-13T01:37:11.137Z,15.64
2018-05-13T01:38:11.140Z,15.54
2018-05-13T01:39:11.157Z,15.42
2018-05-13T01:40:11.163Z,15.41
2018-05-13T01:41:11.228Z,15.23
2018-05-13T01:42:11.187Z,15.08
2018-05-13T01:43:11.198Z,15.03
2018-05-13T01:44:11.215Z,15.09
2018-05-13T01:45:11.223Z,15.13
2018-05-13T01:46:11.233Z,15.03
2018-05-13T01:47:11.240Z,14.98
2018-05-13T01:48:11.258Z,14.99
2018-05-13T01:49:11.271Z,14.84
2018-05-13T01:50:11.281Z,14.74
2018-05-13T01:51:11.297Z,14.67
2018-05-13T01:52:11.301Z,14.60
2018-05-13T01:53:11.316Z,14.56
2018-05-13T01:54:11.324Z,14.54
2018-05-13T01:55:11.333Z,14.42
2018-05-13T01:56:11.348Z,14.43
2018-05-13T01:57:11.366Z,14.46
2018-05-13T01:58:11.369Z,14.46
2018-05-13T01:59:11.381Z,14.53
2018-05-13T02:00:11.394Z,14.62
2018-05-13T02:01:11.401Z,14.65
2018-05-13T02:02:11.413Z,14.61
2018-05-13T02:03:11.425Z,14.60
2018-05-13T02:04:11.439Z,14.61
2018-05-13T02:05:11.447Z,14.67
2018-05-13T02:06:11.455Z,14.69
2018-05-13T02:07:11.471Z,14.57
2018-05-13T02:08:11.486Z,14.37
2018-05-13T02:09:11.500Z,14.49
2018-05-13T02:10:11.504Z,14.43
2018-05-13T02:11:11.526Z,14.34
2018-05-13T02:12:11.531Z,14.35
2018-05-13T02:13:11.539Z,14.37
2018-05-13T02:14:11.547Z,14.49
2018-05-13T02:15:11.569Z,14.43
2018-05-13T02:16:11.573Z,14.50
2018-05-13T02:17:11.580Z,14.53
2018-05-13T02:18:11.590Z,14.54
2018-05-13T02:19:11.608Z,14.56
2018-05-13T02:20:11.615Z,14.78
2018-05-13T02:21:11.631Z,14.61
2018-05-13T02:22:11.637Z,14.65
2018-05-13T02:23:12.388Z,14.53
2018-05-13T02:24:11.658Z,14.50
2018-05-13T02:25:11.669Z,14.47
2018-05-13T02:26:11.676Z,14.50
2018-05-13T02:27:11.706Z,14.44
2018-05-13T02:28:11.701Z,14.64
2018-05-13T02:29:11.714Z,14.53
2018-05-13T02:30:11.723Z,14.54
2018-05-13T02:31:11.738Z,14.54
2018-05-13T02:32:11.753Z,14.64
2018-05-13T02:33:11.757Z,14.56
2018-05-13T02:34:11.798Z,14.57
2018-05-13T02:35:11.781Z,14.39
2018-05-13T02:36:11.794Z,14.43
2018-05-13T02:37:11.804Z,14.61
2018-05-13T02:38:11.813Z,14.68
2018-05-13T02:39:11.828Z,14.75
2018-05-13T02:40:11.838Z,14.69
2018-05-13T02:41:11.849Z,14.75
2018-05-13T02:42:11.855Z,14.84
2018-05-13T02:43:11.867Z,14.71
2018-05-13T02:44:11.894Z,14.74
2018-05-13T02:45:11.888Z,14.74
2018-05-13T02:46:11.900Z,14.75
2018-05-13T02:47:11.958Z,14.60
2018-05-13T02:48:11.919Z,14.47
2018-05-13T02:49:11.936Z,14.49
2018-05-13T02:50:11.946Z,14.44
2018-05-13T02:51:11.956Z,14.39
2018-05-13T02:52:11.966Z,14.34
2018-05-13T02:53:11.981Z,14.31
2018-05-13T02:54:11.993Z,14.25
2018-05-13T02:55:11.998Z,14.27
2018-05-13T02:56:12.014Z,14.19
2018-05-13T02:57:12.022Z,14.27
2018-05-13T02:58:12.030Z,14.14
2018-05-13T02:59:12.053Z,14.14
2018-05-13T03:00:12.066Z,14.17
2018-05-13T03:01:12.071Z,14.14
2018-05-13T03:02:12.078Z,14.17
2018-05-13T03:03:12.094Z,14.20
2018-05-13T03:04:12.102Z,14.27
2018-05-13T03:05:12.117Z,14.19
2018-05-13T03:06:12.128Z,14.19
2018-05-13T03:07:12.132Z,14.25
2018-05-13T03:08:12.145Z,14.27
2018-05-13T03:09:12.156Z,14.21
2018-05-13T03:10:12.165Z,14.38
2018-05-13T03:11:12.179Z,14.44
2018-05-13T03:12:12.195Z,14.31
2018-05-13T03:13:12.244Z,14.21
2018-05-13T03:14:12.206Z,14.17
2018-05-13T03:15:12.218Z,14.17
2018-05-13T03:16:12.224Z,14.31
2018-05-13T03:17:12.238Z,14.29
2018-05-13T03:18:12.249Z,14.32
2018-05-13T03:19:12.259Z,14.21
2018-05-13T03:20:12.268Z,14.09
2018-05-13T03:21:12.281Z,13.94
2018-05-13T03:22:12.292Z,13.88
2018-05-13T03:23:12.305Z,13.69
2018-05-13T03:24:12.320Z,13.76
2018-05-13T03:25:12.326Z,13.74
2018-05-13T03:26:12.338Z,13.58
2018-05-13T03:27:12.363Z,13.67
2018-05-13T03:28:12.357Z,13.69
2018-05-13T03:29:12.370Z,13.73
2018-05-13T03:30:12.387Z,13.69
2018-05-13T03:31:12.397Z,13.63
2018-05-13T03:32:12.403Z,13.63
2018-05-13T03:33:12.413Z,13.73
2018-05-13T03:34:12.799Z,13.77
2018-05-13T03:35:12.433Z,13.80
2018-05-13T03:36:12.448Z,13.69
2018-05-13T03:37:12.454Z,13.70
2018-05-13T03:38:12.466Z,13.63
2018-05-13T03:39:12.480Z,13.79
2018-05-13T03:40:12.483Z,13.91
2018-05-13T03:41:12.499Z,13.98
2018-05-13T03:42:12.511Z,14.12
2018-05-13T03:43:12.518Z,14.12
2018-05-13T03:44:12.526Z,14.21
2018-05-13T03:45:12.542Z,14.25
2018-05-13T03:46:12.552Z,14.34
2018-05-13T03:47:12.561Z,14.38
2018-05-13T03:48:12.578Z,14.44
2018-05-13T03:49:12.589Z,14.46
2018-05-13T03:50:12.592Z,14.43
2018-05-13T03:51:12.605Z,14.52
2018-05-13T03:52:12.616Z,14.49
2018-05-13T03:53:12.632Z,14.46
2018-05-13T03:54:12.644Z,14.46
2018-05-13T03:55:12.645Z,14.42
2018-05-13T03:56:12.663Z,14.49
2018-05-13T03:57:12.671Z,14.54
2018-05-13T03:58:12.679Z,14.65
2018-05-13T03:59:12.694Z,14.74
2018-05-13T04:00:12.701Z,14.65
2018-05-13T04:01:12.721Z,14.72
2018-05-13T04:02:12.724Z,14.72
2018-05-13T04:03:12.735Z,14.75
2018-05-13T04:04:12.745Z,14.68
2018-05-13T04:05:12.759Z,14.81
2018-05-13T04:06:12.767Z,14.83
2018-05-13T04:07:12.783Z,14.84
2018-05-13T04:08:12.790Z,14.95
2018-05-13T04:09:12.798Z,14.95
2018-05-13T04:10:12.811Z,15.01
2018-05-13T04:11:12.822Z,15.03
2018-05-13T04:12:12.829Z,15.05
2018-05-13T04:13:12.849Z,15.03
2018-05-13T04:14:12.859Z,14.95
2018-05-13T04:15:12.864Z,15.06
2018-05-13T04:16:12.875Z,14.99
2018-05-13T04:17:12.885Z,15.03
2018-05-13T04:18:12.895Z,14.87
2018-05-13T04:19:12.911Z,14.90
2018-05-13T04:20:12.919Z,14.90
2018-05-13T04:21:12.932Z,15.02
2018-05-13T04:22:12.940Z,14.91
2018-05-13T04:23:12.950Z,14.91
2018-05-13T04:24:12.968Z,14.93
2018-05-13T04:25:12.973Z,14.99
2018-05-13T04:26:12.989Z,14.99
2018-05-13T04:27:13.000Z,14.88
2018-05-13T04:28:13.009Z,14.90
2018-05-13T04:29:13.015Z,14.99
2018-05-13T04:30:13.035Z,14.95
2018-05-13T04:31:13.042Z,14.94
2018-05-13T04:32:13.048Z,15.06
2018-05-13T04:33:13.065Z,15.03
2018-05-13T04:34:13.077Z,15.09
2018-05-13T04:35:13.090Z,15.12
2018-05-13T04:36:13.102Z,15.21
2018-05-13T04:37:13.110Z,15.26
2018-05-13T04:38:13.120Z,15.39
2018-05-13T04:39:13.147Z,15.35
2018-05-13T04:40:13.139Z,15.36
2018-05-13T04:41:13.152Z,15.38
2018-05-13T04:42:13.164Z,15.39
2018-05-13T04:43:13.169Z,15.42
2018-05-13T04:44:13.188Z,15.54
2018-05-13T04:45:13.193Z,15.67
2018-05-13T04:46:13.212Z,15.64
2018-05-13T04:47:13.221Z,15.75
2018-05-13T04:48:13.227Z,15.79
2018-05-13T04:49:13.251Z,15.78
2018-05-13T04:50:13.253Z,15.79
2018-05-13T04:51:13.260Z,15.82
2018-05-13T04:52:13.287Z,15.70
2018-05-13T04:53:13.295Z,15.85
2018-05-13T04:54:13.302Z,15.82
2018-05-13T04:55:13.306Z,15.99
2018-05-13T04:56:13.321Z,15.94
2018-05-13T04:57:13.331Z,15.93
2018-05-13T04:58:13.347Z,16.11
2018-05-13T04:59:13.353Z,16.16
2018-05-13T05:00:13.364Z,16.18
2018-05-13T05:01:13.375Z,16.06
2018-05-13T05:02:13.390Z,16.12
2018-05-13T05:03:13.399Z,16.14
2018-05-13T05:04:13.421Z,16.23
2018-05-13T05:05:13.424Z,16.16
2018-05-13T05:06:13.430Z,16.30
2018-05-13T05:07:13.451Z,16.23
2018-05-13T05:08:13.457Z,16.31
2018-05-13T05:09:13.486Z,16.37
2018-05-13T05:10:13.478Z,16.41
2018-05-13T05:11:13.506Z,16.37
2018-05-13T05:12:13.502Z,16.33
2018-05-13T05:13:13.509Z,16.22
2018-05-13T05:14:13.539Z,16.20
2018-05-13T05:15:13.532Z,16.16
2018-05-13T05:16:13.558Z,16.15
2018-05-13T05:17:13.562Z,16.09
2018-05-13T05:18:13.575Z,16.11
2018-05-13T05:19:13.579Z,16.20
2018-05-13T05:20:13.594Z,16.27
2018-05-13T05:21:13.603Z,16.16
2018-05-13T05:22:13.618Z,16.27
2018-05-13T05:23:13.635Z,16.41
2018-05-13T05:24:13.645Z,16.40
2018-05-13T05:25:13.653Z,16.41
2018-05-13T05:26:13.661Z,16.48
2018-05-13T05:27:13.674Z,16.40
2018-05-13T05:28:13.687Z,16.38
2018-05-13T05:29:13.708Z,16.33
2018-05-13T05:30:13.712Z,16.31
2018-05-13T05:31:13.721Z,16.31
2018-05-13T05:32:13.731Z,16.33
2018-05-13T05:33:13.743Z,16.42
2018-05-13T05:34:13.808Z,16.48
2018-05-13T05:35:13.762Z,16.52
2018-05-13T05:36:13.784Z,16.52
2018-05-13T05:37:13.798Z,16.63
2018-05-13T05:38:13.797Z,16.60
2018-05-13T05:39:13.808Z,16.52
2018-05-13T05:40:13.825Z,16.53
2018-05-13T05:41:13.840Z,16.58
2018-05-13T05:42:14.835Z,16.52
2018-05-13T05:43:13.861Z,16.53
2018-05-13T05:44:13.864Z,16.52
2018-05-13T05:45:13.880Z,16.62
2018-05-13T05:46:13.890Z,16.73
2018-05-13T05:47:13.904Z,16.42
2018-05-13T05:48:13.918Z,16.49
2018-05-13T05:49:13.932Z,16.41
2018-05-13T05:50:13.936Z,16.44
2018-05-13T05:51:13.948Z,16.33
2018-05-13T05:52:13.960Z,16.27
2018-05-13T05:53:13.973Z,16.15
2018-05-13T05:54:13.981Z,16.14
2018-05-13T05:55:13.995Z,16.16
2018-05-13T05:56:14.004Z,16.33
2018-05-13T05:57:14.015Z,16.26
2018-05-13T05:58:14.029Z,16.31
2018-05-13T05:59:14.038Z,16.45
2018-05-13T06:00:14.048Z,16.55
2018-05-13T06:01:14.068Z,16.65
2018-05-13T06:02:14.072Z,16.83
2018-05-13T06:03:14.167Z,16.88
2018-05-13T06:04:14.096Z,16.89
2018-05-13T06:05:14.110Z,17.00
2018-05-13T06:06:14.119Z,16.99
2018-05-13T06:07:14.143Z,16.96
2018-05-13T06:08:14.150Z,16.90
2018-05-13T06:09:14.155Z,16.88
2018-05-13T06:10:14.168Z,17.10
2018-05-13T06:11:14.180Z,17.03
2018-05-13T06:12:14.293Z,17.06
2018-05-13T06:13:14.211Z,17.04
2018-05-13T06:14:14.218Z,17.08
2018-05-13T06:15:14.225Z,17.10
2018-05-13T06:16:14.236Z,17.15
2018-05-13T06:17:14.253Z,17.14
2018-05-13T06:18:14.260Z,17.13
2018-05-13T06:19:14.278Z,17.08
2018-05-13T06:20:14.289Z,17.22
2018-05-13T06:21:14.306Z,17.17
2018-05-13T06:22:14.307Z,17.28
2018-05-13T06:23:14.322Z,17.15
2018-05-13T06:24:14.331Z,17.17
2018-05-13T06:25:14.449Z,17.10
2018-05-13T06:26:14.356Z,17.10
2018-05-13T06:27:14.368Z,17.10
2018-05-13T06:28:14.383Z,17.18
2018-05-13T06:29:14.390Z,17.20
2018-05-13T06:30:14.403Z,17.22
2018-05-13T06:31:14.424Z,17.29
2018-05-13T06:32:14.431Z,17.23
2018-05-13T06:33:14.443Z,17.17
2018-05-13T06:34:14.467Z,17.30
2018-05-13T06:35:14.464Z,17.23
2018-05-13T06:36:14.477Z,17.14
2018-05-13T06:37:14.497Z,17.14
2018-05-13T06:38:14.500Z,17.20
2018-05-13T06:39:14.513Z,17.38
2018-05-13T06:40:14.528Z,17.32
2018-05-13T06:41:14.539Z,17.36
2018-05-13T06:42:14.549Z,17.23
2018-05-13T06:43:14.563Z,17.26
2018-05-13T06:44:14.582Z,17.32
2018-05-13T06:45:14.587Z,17.36
2018-05-13T06:46:14.597Z,17.50
2018-05-13T06:47:14.612Z,17.33
2018-05-13T06:48:14.624Z,17.51
2018-05-13T06:49:14.634Z,17.33
2018-05-13T06:50:14.648Z,17.35
2018-05-13T06:51:14.775Z,17.48
2018-05-13T06:52:14.670Z,17.38
2018-05-13T06:53:14.683Z,17.36
2018-05-13T06:54:14.692Z,17.40
2018-05-13T06:55:14.706Z,17.48
2018-05-13T06:56:14.720Z,17.41
2018-05-13T06:57:14.828Z,17.48
2018-05-13T06:58:14.745Z,17.62
2018-05-13T06:59:14.755Z,17.57
2018-05-13T07:00:14.763Z,17.63
2018-05-13T07:01:14.780Z,17.71
2018-05-13T07:02:14.790Z,17.78
2018-05-13T07:03:14.802Z,17.76
2018-05-13T07:04:14.821Z,17.81
2018-05-13T07:05:14.827Z,17.82
2018-05-13T07:06:14.837Z,17.91
2018-05-13T07:07:14.852Z,17.88
2018-05-13T07:08:14.862Z,17.95
2018-05-13T07:09:14.875Z,18.00
2018-05-13T07:10:14.974Z,17.92
2018-05-13T07:11:14.898Z,17.88
2018-05-13T07:12:14.909Z,17.85
2018-05-13T07:13:14.924Z,17.89
2018-05-13T07:14:14.934Z,17.88
2018-05-13T07:15:14.947Z,17.82
2018-05-13T07:16:14.965Z,17.74
2018-05-13T07:17:14.979Z,17.82
2018-05-13T07:18:14.989Z,17.78
2018-05-13T07:19:14.996Z,17.76
2018-05-13T07:20:15.011Z,17.85
2018-05-13T07:21:15.023Z,17.79
2018-05-13T07:22:15.043Z,17.85
2018-05-13T07:23:15.044Z,17.94
2018-05-13T07:24:15.057Z,17.97
2018-05-13T07:25:15.067Z,18.07
2018-05-13T07:26:15.082Z,18.13
2018-05-13T07:27:15.093Z,18.36
2018-05-13T07:28:15.117Z,18.44
2018-05-13T07:29:15.137Z,18.67
2018-05-13T07:30:15.129Z,18.84
2018-05-13T07:31:15.143Z,18.87
2018-05-13T07:32:15.155Z,18.90
2018-05-13T07:33:15.169Z,18.87
2018-05-13T07:34:15.189Z,18.90
2018-05-13T07:35:15.194Z,18.97
2018-05-13T07:36:15.205Z,18.98
2018-05-13T07:37:15.218Z,19.11
2018-05-13T07:38:15.230Z,19.18
2018-05-13T07:39:15.244Z,18.98
2018-05-13T07:40:15.257Z,18.80
2018-05-13T07:41:15.314Z,18.86
2018-05-13T07:42:15.281Z,18.77
2018-05-13T07:43:15.308Z,18.79
2018-05-13T07:44:15.305Z,18.91
2018-05-13T07:45:15.324Z,18.94
2018-05-13T07:46:15.333Z,18.98
2018-05-13T07:47:15.348Z,19.20
2018-05-13T07:48:15.358Z,19.06
2018-05-13T07:49:15.376Z,19.01
2018-05-13T07:50:15.382Z,19.13
2018-05-13T07:51:15.396Z,18.99
2018-05-13T07:52:15.409Z,18.90
2018-05-13T07:53:15.423Z,18.72
2018-05-13T07:54:15.435Z,18.62
2018-05-13T07:55:15.462Z,18.80
2018-05-13T07:56:15.462Z,18.64
2018-05-13T07:57:15.480Z,18.76
2018-05-13T07:58:15.503Z,18.70
2018-05-13T07:59:15.506Z,18.74
2018-05-13T08:00:15.520Z,18.84
2018-05-13T08:01:15.530Z,18.94
2018-05-13T08:02:15.540Z,19.06
2018-05-13T08:03:15.553Z,19.21
2018-05-13T08:04:15.568Z,19.40
2018-05-13T08:05:15.580Z,19.51
2018-05-13T08:06:15.667Z,19.50
2018-05-13T08:07:15.613Z,19.58
2018-05-13T08:08:15.620Z,19.58
2018-05-13T08:09:15.632Z,19.63
2018-05-13T08:10:15.648Z,19.65
2018-05-13T08:11:15.659Z,19.57
2018-05-13T08:12:15.674Z,19.54
2018-05-13T08:13:15.685Z,19.42
2018-05-13T08:14:15.700Z,19.50
2018-05-13T08:15:15.725Z,19.51
2018-05-13T08:16:15.728Z,19.25
2018-05-13T08:17:15.758Z,19.35
2018-05-13T08:18:15.751Z,19.31
2018-05-13T08:19:15.764Z,19.39
2018-05-13T08:20:15.788Z,19.55
2018-05-13T08:21:15.798Z,19.53
2018-05-13T08:22:15.804Z,19.47
2018-05-13T08:23:15.819Z,19.60
2018-05-13T08:24:15.833Z,19.83
2018-05-13T08:25:15.848Z,20.00
2018-05-13T08:26:15.859Z,19.98
2018-05-13T08:27:15.887Z,20.24
2018-05-13T08:28:15.887Z,20.21
2018-05-13T08:29:15.901Z,20.18
2018-05-13T08:30:15.911Z,20.28
2018-05-13T08:31:15.936Z,20.21
2018-05-13T08:32:15.943Z,20.27
2018-05-13T08:33:15.962Z,20.39
2018-05-13T08:34:15.967Z,20.21
2018-05-13T08:35:15.983Z,20.28
2018-05-13T08:36:15.996Z,20.51
2018-05-13T08:37:16.010Z,20.68
2018-05-13T08:38:16.023Z,20.74
2018-05-13T08:39:16.044Z,20.49
2018-05-13T08:40:16.051Z,20.51
2018-05-13T08:41:16.064Z,20.62
2018-05-13T08:42:16.080Z,20.50
2018-05-13T08:43:16.093Z,20.58
2018-05-13T08:44:16.108Z,20.64
2018-05-13T08:45:16.141Z,20.66
2018-05-13T08:46:16.136Z,20.64
2018-05-13T08:47:16.153Z,20.71
2018-05-13T08:48:16.162Z,20.43
2018-05-13T08:49:16.180Z,20.24
2018-05-13T08:50:16.190Z,20.30
2018-05-13T08:51:16.205Z,20.28
2018-05-13T08:52:16.236Z,20.16
2018-05-13T08:53:16.238Z,20.24
2018-05-13T08:54:16.246Z,20.42
2018-05-13T08:55:16.262Z,20.24
2018-05-13T08:56:16.276Z,20.12
2018-05-13T08:57:16.295Z,19.80
2018-05-13T08:58:16.310Z,19.84
2018-05-13T08:59:16.319Z,20.00
2018-05-13T09:00:16.332Z,20.09
2018-05-13T09:01:16.349Z,20.18
2018-05-13T09:02:16.364Z,20.43
2018-05-13T09:03:16.376Z,20.46
2018-05-13T09:04:16.393Z,20.59
2018-05-13T09:05:16.402Z,20.68
2018-05-13T09:06:16.416Z,20.79
2018-05-13T09:07:16.509Z,20.71
2018-05-13T09:08:16.444Z,20.77
2018-05-13T09:09:16.459Z,20.81
2018-05-13T09:10:16.472Z,20.86
2018-05-13T09:11:16.510Z,20.95
2018-05-13T09:12:16.502Z,21.01
2018-05-13T09:13:16.519Z,21.24
2018-05-13T09:14:16.567Z,21.30
2018-05-13T09:15:16.543Z,21.30
2018-05-13T09:16:16.560Z,21.35
2018-05-13T09:17:16.581Z,21.36
2018-05-13T09:18:16.588Z,21.35
2018-05-13T09:19:16.601Z,21.38
2018-05-13T09:20:16.614Z,21.38
2018-05-13T09:21:16.633Z,21.38
2018-05-13T09:22:16.648Z,21.35
2018-05-13T09:23:16.659Z,21.23
2018-05-13T09:24:16.675Z,21.39
2018-05-13T09:25:16.689Z,21.34
2018-05-13T09:26:16.717Z,21.35
2018-05-13T09:27:16.722Z,21.23
2018-05-13T09:28:16.736Z,21.36
2018-05-13T09:29:16.747Z,21.42
2018-05-13T09:30:16.764Z,21.50
2018-05-13T09:31:16.780Z,21.30
2018-05-13T09:32:16.791Z,21.21
2018-05-13T09:33:16.809Z,21.23
2018-05-13T09:34:16.818Z,21.29
2018-05-13T09:35:16.850Z,21.39
2018-05-13T09:36:16.852Z,21.36
2018-05-13T09:37:16.861Z,21.42
2018-05-13T09:38:16.878Z,21.44
2018-05-13T09:39:16.897Z,21.63
2018-05-13T09:40:16.911Z,21.71
2018-05-13T09:41:16.920Z,21.51
2018-05-13T09:42:16.935Z,21.50
2018-05-13T09:43:16.953Z,21.53
2018-05-13T09:44:16.973Z,21.72
2018-05-13T09:45:16.980Z,21.71
2018-05-13T09:46:16.993Z,21.81
2018-05-13T09:47:17.008Z,21.76
2018-05-13T09:48:17.027Z,21.90
2018-05-13T09:49:17.040Z,21.98
2018-05-13T09:50:17.052Z,22.14
2018-05-13T09:51:17.142Z,22.28
2018-05-13T09:52:17.088Z,22.19
2018-05-13T09:53:17.100Z,22.29
2018-05-13T09:54:17.110Z,22.22
2018-05-13T09:55:17.128Z,22.23
2018-05-13T09:56:17.150Z,22.25
2018-05-13T09:57:17.154Z,22.17
2018-05-13T09:58:17.182Z,22.37
2018-05-13T09:59:17.185Z,22.60
2018-05-13T10:00:17.203Z,22.57
2018-05-13T10:01:17.232Z,22.62
2018-05-13T10:02:17.235Z,22.68
2018-05-13T10:03:17.244Z,22.92
2018-05-13T10:04:17.266Z,22.72
2018-05-13T10:05:17.275Z,22.78
2018-05-13T10:06:17.293Z,22.93
2018-05-13T10:07:17.305Z,23.12
2018-05-13T10:08:17.327Z,23.15
2018-05-13T10:09:17.364Z,23.19
2018-05-13T10:10:17.352Z,23.17
2018-05-13T10:11:17.374Z,23.19
2018-05-13T10:12:17.384Z,23.12
2018-05-13T10:13:17.399Z,22.97
2018-05-13T10:14:17.418Z,23.02
2018-05-13T10:15:17.430Z,23.04
2018-05-13T10:16:18.013Z,22.90
2018-05-13T10:17:17.470Z,23.02
2018-05-13T10:18:17.474Z,22.97
2018-05-13T10:19:17.491Z,22.94
2018-05-13T10:20:17.505Z,22.90
2018-05-13T10:21:17.529Z,22.83
2018-05-13T10:22:17.544Z,23.02
2018-05-13T10:23:17.560Z,22.92
2018-05-13T10:24:17.568Z,22.96
2018-05-13T10:25:17.597Z,23.01
2018-05-13T10:26:17.598Z,23.07
2018-05-13T10:27:17.692Z,23.20
2018-05-13T10:28:17.630Z,23.07
2018-05-13T10:29:17.645Z,22.92
2018-05-13T10:30:17.658Z,22.56
2018-05-13T10:31:17.677Z,22.69
2018-05-13T10:32:17.691Z,22.64
2018-05-13T10:33:17.731Z,22.68
2018-05-13T10:34:17.722Z,22.77
2018-05-13T10:35:17.738Z,22.93
2018-05-13T10:36:17.848Z,22.80
2018-05-13T10:37:17.772Z,22.75
2018-05-13T10:38:17.784Z,22.86
2018-05-13T10:39:17.801Z,22.90
2018-05-13T10:40:17.816Z,22.92
2018-05-13T10:41:17.832Z,23.08
2018-05-13T10:42:17.852Z,23.14
2018-05-13T10:43:17.866Z,23.14
2018-05-13T10:44:17.885Z,23.20
2018-05-13T10:45:17.894Z,23.11
2018-05-13T10:46:17.908Z,23.11
2018-05-13T10:47:17.933Z,23.11
2018-05-13T10:48:17.938Z,23.17
2018-05-13T10:49:17.966Z,22.89
2018-05-13T10:50:18.350Z,22.97
2018-05-13T10:51:17.985Z,22.94
2018-05-13T10:52:18.007Z,22.83
2018-05-13T10:53:18.079Z,23.14
2018-05-13T10:54:18.037Z,23.42
2018-05-13T10:55:18.049Z,23.46
2018-05-13T10:56:18.064Z,23.65
2018-05-13T10:57:18.085Z,23.68
2018-05-13T10:58:18.094Z,23.70
2018-05-13T10:59:18.110Z,23.53
2018-05-13T11:00:18.130Z,23.47
2018-05-13T11:01:18.141Z,23.45
2018-05-13T11:02:18.164Z,23.53
2018-05-13T11:03:18.172Z,23.65
2018-05-13T11:04:18.194Z,23.89
2018-05-13T11:05:18.209Z,24.04
2018-05-13T11:06:18.261Z,24.16
2018-05-13T11:07:18.243Z,24.23
2018-05-13T11:08:18.259Z,24.24
2018-05-13T11:09:18.268Z,24.35
2018-05-13T11:10:18.335Z,24.57
2018-05-13T11:11:18.301Z,24.87
2018-05-13T11:12:18.322Z,24.83
2018-05-13T11:13:18.336Z,25.10
2018-05-13T11:14:18.354Z,25.19
2018-05-13T11:15:18.365Z,24.88
2018-05-13T11:16:18.382Z,24.47
2018-05-13T11:17:18.398Z,24.42
2018-05-13T11:18:18.425Z,24.20
2018-05-13T11:19:18.437Z,24.02
2018-05-13T11:20:18.453Z,23.95
2018-05-13T11:21:18.464Z,23.97
2018-05-13T11:22:18.480Z,23.90
2018-05-13T11:23:18.496Z,23.89
2018-05-13T11:24:18.514Z,23.76
2018-05-13T11:25:18.537Z,23.77
2018-05-13T11:26:18.634Z,23.89
2018-05-13T11:27:18.564Z,25.07
2018-05-13T11:28:18.578Z,26.42
2018-05-13T11:29:18.596Z,27.05
2018-05-13T11:30:18.618Z,26.76
2018-05-13T11:31:18.627Z,26.18
2018-05-13T11:32:18.646Z,25.68
2018-05-13T11:33:18.666Z,25.46
2018-05-13T11:34:18.682Z,25.19
2018-05-13T11:35:18.699Z,25.05
2018-05-13T11:36:18.717Z,24.85
2018-05-13T11:37:18.740Z,24.54
2018-05-13T11:38:18.753Z,24.54
2018-05-13T11:39:18.767Z,24.23
2018-05-13T11:40:18.787Z,25.53
2018-05-13T11:41:18.805Z,26.09
2018-05-13T11:42:18.819Z,27.36
2018-05-13T11:43:18.845Z,28.29
2018-05-13T11:44:18.857Z,29.01
2018-05-13T11:45:18.877Z,29.07
2018-05-13T11:46:18.895Z,29.70
2018-05-13T11:47:18.918Z,29.92
2018-05-13T11:48:18.932Z,29.84
2018-05-13T11:49:18.960Z,30.72
2018-05-13T11:50:18.976Z,31.31
2018-05-13T11:51:18.997Z,31.82
2018-05-13T11:52:19.021Z,32.27
2018-05-13T11:53:19.041Z,32.76
2018-05-13T11:54:19.063Z,32.98
2018-05-13T11:55:19.099Z,32.71
2018-05-13T11:56:19.111Z,33.20
2018-05-13T11:57:19.128Z,33.48
2018-05-13T11:58:19.150Z,33.51
2018-05-13T11:59:19.176Z,33.19
2018-05-13T12:00:19.198Z,33.03
2018-05-13T12:01:19.228Z,32.98
2018-05-13T12:02:19.283Z,33.52
2018-05-13T12:03:19.278Z,33.42
2018-05-13T12:04:19.297Z,34.01
2018-05-13T12:05:19.320Z,33.52
2018-05-13T12:06:19.344Z,33.20
2018-05-13T12:07:19.380Z,33.39
2018-05-13T12:08:20.048Z,34.14
2018-05-13T12:09:19.427Z,33.89
2018-05-13T12:10:19.451Z,33.95
2018-05-13T12:11:19.478Z,32.22
2018-05-13T12:12:19.502Z,32.52
2018-05-13T12:13:19.526Z,31.64
2018-05-13T12:14:19.554Z,31.05
2018-05-13T12:15:19.579Z,30.50
2018-05-13T12:16:19.606Z,30.09
2018-05-13T12:17:19.631Z,29.62
2018-05-13T12:18:19.652Z,30.14
2018-05-13T12:19:19.685Z,31.39
2018-05-13T12:20:19.704Z,32.17
2018-05-13T12:21:19.728Z,32.69
2018-05-13T12:22:19.789Z,32.98
2018-05-13T12:23:19.774Z,33.39
2018-05-13T12:24:19.809Z,33.83
2018-05-13T12:25:19.822Z,34.22
2018-05-13T12:26:19.853Z,32.81
2018-05-13T12:27:19.877Z,31.28
2018-05-13T12:28:19.897Z,30.43
2018-05-13T12:29:19.925Z,30.12
2018-05-13T12:30:19.946Z,29.53
2018-05-13T12:31:19.971Z,29.18
2018-05-13T12:32:19.996Z,29.92
2018-05-13T12:33:20.020Z,31.43
2018-05-13T12:34:20.045Z,32.30
2018-05-13T12:35:20.067Z,32.79
2018-05-13T12:36:20.090Z,33.22
2018-05-13T12:37:20.123Z,33.55
2018-05-13T12:38:20.137Z,33.94
2018-05-13T12:39:20.167Z,33.65
2018-05-13T12:40:20.187Z,34.11
2018-05-13T12:41:20.212Z,34.08
2018-05-13T12:42:20.269Z,33.60
2018-05-13T12:43:20.260Z,33.92
2018-05-13T12:44:20.286Z,34.51
2018-05-13T12:45:20.314Z,34.57
2018-05-13T12:46:20.339Z,35.07
2018-05-13T12:47:20.362Z,35.28
2018-05-13T12:48:20.435Z,35.62
2018-05-13T12:49:20.440Z,36.23
2018-05-13T12:50:20.443Z,35.39
2018-05-13T12:51:20.472Z,34.45
2018-05-13T12:52:20.495Z,33.53